sensor_id;sensor_type;location;lat;lon;timestamp;P1;durP1;ratioP1;P2;durP2;ratioP2
16809;SDS011;51744;50.872;4.730;2023-04-06T00:01:56;21.50;;;18.33;;
16809;SDS011;51744;50.872;4.730;2023-04-06T00:04:44;21.10;;;18.90;;
16809;SDS011;51744;50.872;4.730;2023-04-06T00:07:31;22.20;;;18.60;;
16809;SDS011;51744;50.872;4.730;2023-04-06T00:10:20;22.67;;;18.83;;
16809;SDS011;51744;50.872;4.730;2023-04-06T00:13:09;21.77;;;19.40;;
16809;SDS011;51744;50.872;4.730;2023-04-06T00:15:56;22.85;;;18.70;;
16809;SDS011;51744;50.872;4.730;2023-04-06T00:18:46;21.00;;;18.48;;
16809;SDS011;51744;50.872;4.730;2023-04-06T00:21:34;21.73;;;19.00;;
16809;SDS011;51744;50.872;4.730;2023-04-06T00:24:22;24.52;;;19.58;;
16809;SDS011;51744;50.872;4.730;2023-04-06T00:27:10;22.27;;;18.52;;
16809;SDS011;51744;50.872;4.730;2023-04-06T00:29:58;20.45;;;18.02;;
16809;SDS011;51744;50.872;4.730;2023-04-06T00:32:46;20.93;;;18.63;;
16809;SDS011;51744;50.872;4.730;2023-04-06T00:35:34;21.55;;;18.85;;
16809;SDS011;51744;50.872;4.730;2023-04-06T00:38:22;22.90;;;18.73;;
16809;SDS011;51744;50.872;4.730;2023-04-06T00:41:09;21.20;;;19.00;;
16809;SDS011;51744;50.872;4.730;2023-04-06T00:43:58;20.73;;;18.53;;
16809;SDS011;51744;50.872;4.730;2023-04-06T00:46:45;21.95;;;18.70;;
16809;SDS011;51744;50.872;4.730;2023-04-06T00:49:32;22.00;;;19.15;;
16809;SDS011;51744;50.872;4.730;2023-04-06T00:52:22;21.07;;;18.80;;
16809;SDS011;51744;50.872;4.730;2023-04-06T00:55:10;21.35;;;19.15;;
16809;SDS011;51744;50.872;4.730;2023-04-06T00:58:00;22.02;;;19.65;;
16809;SDS011;51744;50.872;4.730;2023-04-06T01:00:56;21.67;;;19.38;;
16809;SDS011;51744;50.872;4.730;2023-04-06T01:03:44;22.67;;;20.02;;
16809;SDS011;51744;50.872;4.730;2023-04-06T01:06:35;21.30;;;19.10;;
16809;SDS011;51744;50.872;4.730;2023-04-06T01:09:24;21.30;;;18.90;;
16809;SDS011;51744;50.872;4.730;2023-04-06T01:12:15;20.77;;;18.58;;
16809;SDS011;51744;50.872;4.730;2023-04-06T01:15:02;21.63;;;18.97;;
16809;SDS011;51744;50.872;4.730;2023-04-06T01:17:52;21.63;;;18.13;;
16809;SDS011;51744;50.872;4.730;2023-04-06T01:20:40;19.97;;;17.93;;
16809;SDS011;51744;50.872;4.730;2023-04-06T01:23:29;20.30;;;18.20;;
16809;SDS011;51744;50.872;4.730;2023-04-06T01:26:17;20.80;;;18.60;;
16809;SDS011;51744;50.872;4.730;2023-04-06T01:29:05;21.30;;;18.77;;
16809;SDS011;51744;50.872;4.730;2023-04-06T01:31:53;20.73;;;18.17;;
16809;SDS011;51744;50.872;4.730;2023-04-06T01:34:41;20.95;;;18.42;;
16809;SDS011;51744;50.872;4.730;2023-04-06T01:37:28;20.17;;;17.98;;
16809;SDS011;51744;50.872;4.730;2023-04-06T01:40:22;20.35;;;18.25;;
16809;SDS011;51744;50.872;4.730;2023-04-06T01:43:10;20.30;;;18.25;;
16809;SDS011;51744;50.872;4.730;2023-04-06T01:46:24;19.10;;;17.17;;
16809;SDS011;51744;50.872;4.730;2023-04-06T01:49:12;20.80;;;18.65;;
16809;SDS011;51744;50.872;4.730;2023-04-06T01:52:04;19.73;;;17.70;;
16809;SDS011;51744;50.872;4.730;2023-04-06T01:54:53;20.00;;;17.90;;
16809;SDS011;51744;50.872;4.730;2023-04-06T01:57:59;19.65;;;17.65;;
16809;SDS011;51744;50.872;4.730;2023-04-06T02:00:52;20.10;;;18.13;;
16809;SDS011;51744;50.872;4.730;2023-04-06T02:03:40;19.42;;;17.40;;
16809;SDS011;51744;50.872;4.730;2023-04-06T02:06:29;19.30;;;17.42;;
16809;SDS011;51744;50.872;4.730;2023-04-06T02:09:17;19.60;;;17.63;;
16809;SDS011;51744;50.872;4.730;2023-04-06T02:12:04;20.10;;;17.77;;
16809;SDS011;51744;50.872;4.730;2023-04-06T02:14:54;19.10;;;17.10;;
16809;SDS011;51744;50.872;4.730;2023-04-06T02:17:41;19.30;;;17.40;;
16809;SDS011;51744;50.872;4.730;2023-04-06T02:20:29;18.60;;;16.67;;
16809;SDS011;51744;50.872;4.730;2023-04-06T02:23:17;20.35;;;18.17;;
16809;SDS011;51744;50.872;4.730;2023-04-06T02:26:04;19.65;;;17.60;;
16809;SDS011;51744;50.872;4.730;2023-04-06T02:28:52;19.50;;;17.60;;
16809;SDS011;51744;50.872;4.730;2023-04-06T02:31:40;19.73;;;17.53;;
16809;SDS011;51744;50.872;4.730;2023-04-06T02:34:28;18.77;;;16.85;;
16809;SDS011;51744;50.872;4.730;2023-04-06T02:37:15;19.27;;;17.20;;
16809;SDS011;51744;50.872;4.730;2023-04-06T02:40:03;18.73;;;16.77;;
16809;SDS011;51744;50.872;4.730;2023-04-06T02:42:51;19.48;;;17.42;;
16809;SDS011;51744;50.872;4.730;2023-04-06T02:45:45;18.77;;;16.88;;
16809;SDS011;51744;50.872;4.730;2023-04-06T02:48:35;19.88;;;17.45;;
16809;SDS011;51744;50.872;4.730;2023-04-06T02:51:22;19.40;;;17.40;;
16809;SDS011;51744;50.872;4.730;2023-04-06T02:54:14;19.83;;;17.10;;
16809;SDS011;51744;50.872;4.730;2023-04-06T02:57:01;19.25;;;17.25;;
16809;SDS011;51744;50.872;4.730;2023-04-06T02:59:59;18.67;;;16.88;;
16809;SDS011;51744;50.872;4.730;2023-04-06T03:02:55;19.30;;;17.40;;
16809;SDS011;51744;50.872;4.730;2023-04-06T03:05:45;19.20;;;17.30;;
16809;SDS011;51744;50.872;4.730;2023-04-06T03:08:36;18.80;;;16.92;;
16809;SDS011;51744;50.872;4.730;2023-04-06T03:11:23;19.17;;;17.30;;
16809;SDS011;51744;50.872;4.730;2023-04-06T03:14:11;19.42;;;17.42;;
16809;SDS011;51744;50.872;4.730;2023-04-06T03:16:59;19.67;;;17.67;;
16809;SDS011;51744;50.872;4.730;2023-04-06T03:19:46;19.33;;;17.38;;
16809;SDS011;51744;50.872;4.730;2023-04-06T03:22:36;19.70;;;17.70;;
16809;SDS011;51744;50.872;4.730;2023-04-06T03:25:26;19.38;;;17.40;;
16809;SDS011;51744;50.872;4.730;2023-04-06T03:28:17;18.98;;;16.98;;
16809;SDS011;51744;50.872;4.730;2023-04-06T03:31:14;19.40;;;17.50;;
16809;SDS011;51744;50.872;4.730;2023-04-06T03:34:12;19.00;;;17.10;;
16809;SDS011;51744;50.872;4.730;2023-04-06T03:36:59;18.48;;;16.58;;
16809;SDS011;51744;50.872;4.730;2023-04-06T03:40:00;18.65;;;16.85;;
16809;SDS011;51744;50.872;4.730;2023-04-06T03:42:47;20.52;;;17.85;;
16809;SDS011;51744;50.872;4.730;2023-04-06T03:45:34;18.40;;;16.52;;
16809;SDS011;51744;50.872;4.730;2023-04-06T03:48:23;18.93;;;17.00;;
16809;SDS011;51744;50.872;4.730;2023-04-06T03:51:10;18.90;;;16.90;;
16809;SDS011;51744;50.872;4.730;2023-04-06T03:53:58;19.02;;;17.20;;
16809;SDS011;51744;50.872;4.730;2023-04-06T03:56:48;19.20;;;17.27;;
16809;SDS011;51744;50.872;4.730;2023-04-06T03:59:35;19.52;;;17.38;;
16809;SDS011;51744;50.872;4.730;2023-04-06T04:02:23;19.20;;;17.20;;
16809;SDS011;51744;50.872;4.730;2023-04-06T04:05:11;18.63;;;16.73;;
16809;SDS011;51744;50.872;4.730;2023-04-06T04:07:58;18.88;;;16.88;;
16809;SDS011;51744;50.872;4.730;2023-04-06T04:10:46;19.13;;;17.17;;
16809;SDS011;51744;50.872;4.730;2023-04-06T04:13:35;19.15;;;17.25;;
16809;SDS011;51744;50.872;4.730;2023-04-06T04:16:24;18.55;;;16.65;;
16809;SDS011;51744;50.872;4.730;2023-04-06T04:19:11;19.83;;;17.75;;
16809;SDS011;51744;50.872;4.730;2023-04-06T04:21:59;19.25;;;17.30;;
16809;SDS011;51744;50.872;4.730;2023-04-06T04:24:52;19.75;;;17.67;;
16809;SDS011;51744;50.872;4.730;2023-04-06T04:27:39;18.80;;;16.90;;
16809;SDS011;51744;50.872;4.730;2023-04-06T04:30:28;19.48;;;17.55;;
16809;SDS011;51744;50.872;4.730;2023-04-06T04:33:15;20.17;;;18.20;;
16809;SDS011;51744;50.872;4.730;2023-04-06T04:36:03;19.02;;;17.02;;
16809;SDS011;51744;50.872;4.730;2023-04-06T04:38:56;19.38;;;17.38;;
16809;SDS011;51744;50.872;4.730;2023-04-06T04:41:49;19.90;;;17.90;;
16809;SDS011;51744;50.872;4.730;2023-04-06T04:44:36;18.98;;;17.00;;
16809;SDS011;51744;50.872;4.730;2023-04-06T04:47:25;19.52;;;17.63;;
16809;SDS011;51744;50.872;4.730;2023-04-06T04:50:13;19.60;;;17.55;;
16809;SDS011;51744;50.872;4.730;2023-04-06T04:53:03;19.40;;;17.48;;
16809;SDS011;51744;50.872;4.730;2023-04-06T04:55:51;18.40;;;16.50;;
16809;SDS011;51744;50.872;4.730;2023-04-06T04:58:39;19.67;;;17.45;;
16809;SDS011;51744;50.872;4.730;2023-04-06T05:01:27;19.20;;;17.23;;
16809;SDS011;51744;50.872;4.730;2023-04-06T05:04:29;19.20;;;17.17;;
16809;SDS011;51744;50.872;4.730;2023-04-06T05:07:19;19.48;;;17.60;;
16809;SDS011;51744;50.872;4.730;2023-04-06T05:10:09;19.48;;;17.48;;
16809;SDS011;51744;50.872;4.730;2023-04-06T05:13:06;19.75;;;17.70;;
16809;SDS011;51744;50.872;4.730;2023-04-06T05:15:54;18.75;;;16.85;;
16809;SDS011;51744;50.872;4.730;2023-04-06T05:18:44;19.15;;;17.00;;
16809;SDS011;51744;50.872;4.730;2023-04-06T05:21:33;19.25;;;16.80;;
16809;SDS011;51744;50.872;4.730;2023-04-06T05:24:23;18.40;;;16.60;;
16809;SDS011;51744;50.872;4.730;2023-04-06T05:27:11;18.77;;;16.88;;
16809;SDS011;51744;50.872;4.730;2023-04-06T05:29:59;18.97;;;17.07;;
16809;SDS011;51744;50.872;4.730;2023-04-06T05:32:49;18.83;;;16.50;;
16809;SDS011;51744;50.872;4.730;2023-04-06T05:35:38;19.25;;;17.27;;
16809;SDS011;51744;50.872;4.730;2023-04-06T05:38:31;19.17;;;17.17;;
16809;SDS011;51744;50.872;4.730;2023-04-06T05:41:27;19.85;;;16.92;;
16809;SDS011;51744;50.872;4.730;2023-04-06T05:44:14;18.90;;;16.98;;
16809;SDS011;51744;50.872;4.730;2023-04-06T05:47:05;22.50;;;17.52;;
16809;SDS011;51744;50.872;4.730;2023-04-06T05:49:54;19.52;;;17.48;;
16809;SDS011;51744;50.872;4.730;2023-04-06T05:52:49;18.70;;;16.80;;
16809;SDS011;51744;50.872;4.730;2023-04-06T05:55:41;19.73;;;17.00;;
16809;SDS011;51744;50.872;4.730;2023-04-06T05:58:33;18.63;;;16.63;;
16809;SDS011;51744;50.872;4.730;2023-04-06T06:01:22;18.65;;;16.55;;
16809;SDS011;51744;50.872;4.730;2023-04-06T06:04:10;18.67;;;16.67;;
16809;SDS011;51744;50.872;4.730;2023-04-06T06:06:58;18.00;;;16.08;;
16809;SDS011;51744;50.872;4.730;2023-04-06T06:09:52;19.52;;;16.27;;
16809;SDS011;51744;50.872;4.730;2023-04-06T06:12:49;19.13;;;16.75;;
16809;SDS011;51744;50.872;4.730;2023-04-06T06:15:36;18.90;;;16.05;;
16809;SDS011;51744;50.872;4.730;2023-04-06T06:18:23;19.27;;;16.97;;
16809;SDS011;51744;50.872;4.730;2023-04-06T06:21:12;17.83;;;16.00;;
16809;SDS011;51744;50.872;4.730;2023-04-06T06:24:02;19.83;;;16.45;;
16809;SDS011;51744;50.872;4.730;2023-04-06T06:26:50;18.67;;;16.65;;
16809;SDS011;51744;50.872;4.730;2023-04-06T06:29:42;18.43;;;15.53;;
16809;SDS011;51744;50.872;4.730;2023-04-06T06:32:30;19.02;;;15.50;;
16809;SDS011;51744;50.872;4.730;2023-04-06T06:35:18;18.20;;;15.40;;
16809;SDS011;51744;50.872;4.730;2023-04-06T06:38:06;20.25;;;16.05;;
16809;SDS011;51744;50.872;4.730;2023-04-06T06:40:54;19.75;;;15.85;;
16809;SDS011;51744;50.872;4.730;2023-04-06T06:43:44;18.63;;;15.02;;
16809;SDS011;51744;50.872;4.730;2023-04-06T06:46:33;17.87;;;15.97;;
16809;SDS011;51744;50.872;4.730;2023-04-06T06:49:20;18.23;;;15.68;;
16809;SDS011;51744;50.872;4.730;2023-04-06T06:52:08;18.75;;;15.57;;
16809;SDS011;51744;50.872;4.730;2023-04-06T06:54:55;17.63;;;15.70;;
16809;SDS011;51744;50.872;4.730;2023-04-06T06:57:42;18.20;;;15.63;;
16809;SDS011;51744;50.872;4.730;2023-04-06T07:00:32;17.88;;;15.98;;
16809;SDS011;51744;50.872;4.730;2023-04-06T07:03:21;18.67;;;16.13;;
16809;SDS011;51744;50.872;4.730;2023-04-06T07:06:09;18.33;;;15.35;;
16809;SDS011;51744;50.872;4.730;2023-04-06T07:08:58;18.60;;;16.02;;
16809;SDS011;51744;50.872;4.730;2023-04-06T07:11:45;18.08;;;15.82;;
16809;SDS011;51744;50.872;4.730;2023-04-06T07:14:33;18.67;;;16.02;;
16809;SDS011;51744;50.872;4.730;2023-04-06T07:17:20;17.30;;;15.50;;
16809;SDS011;51744;50.872;4.730;2023-04-06T07:20:10;19.38;;;16.50;;
16809;SDS011;51744;50.872;4.730;2023-04-06T07:22:58;22.63;;;16.77;;
16809;SDS011;51744;50.872;4.730;2023-04-06T07:25:45;20.00;;;17.05;;
16809;SDS011;51744;50.872;4.730;2023-04-06T07:28:32;21.30;;;17.65;;
16809;SDS011;51744;50.872;4.730;2023-04-06T07:31:19;20.40;;;18.20;;
16809;SDS011;51744;50.872;4.730;2023-04-06T07:34:07;20.42;;;18.13;;
16809;SDS011;51744;50.872;4.730;2023-04-06T07:36:57;20.13;;;17.73;;
16809;SDS011;51744;50.872;4.730;2023-04-06T07:39:48;22.13;;;18.03;;
16809;SDS011;51744;50.872;4.730;2023-04-06T07:42:35;18.95;;;16.95;;
16809;SDS011;51744;50.872;4.730;2023-04-06T07:45:25;19.95;;;17.95;;
16809;SDS011;51744;50.872;4.730;2023-04-06T07:48:13;18.77;;;16.85;;
16809;SDS011;51744;50.872;4.730;2023-04-06T07:51:01;20.02;;;17.73;;
16809;SDS011;51744;50.872;4.730;2023-04-06T07:53:52;20.98;;;18.73;;
16809;SDS011;51744;50.872;4.730;2023-04-06T07:56:40;19.25;;;17.25;;
16809;SDS011;51744;50.872;4.730;2023-04-06T07:59:28;21.17;;;18.98;;
16809;SDS011;51744;50.872;4.730;2023-04-06T08:02:15;21.60;;;19.40;;
16809;SDS011;51744;50.872;4.730;2023-04-06T08:05:03;21.73;;;18.48;;
16809;SDS011;51744;50.872;4.730;2023-04-06T08:07:51;21.02;;;18.92;;
16809;SDS011;51744;50.872;4.730;2023-04-06T08:10:40;20.63;;;18.52;;
16809;SDS011;51744;50.872;4.730;2023-04-06T08:13:28;21.77;;;19.47;;
16809;SDS011;51744;50.872;4.730;2023-04-06T08:16:16;21.43;;;19.13;;
16809;SDS011;51744;50.872;4.730;2023-04-06T08:19:04;19.92;;;17.83;;
16809;SDS011;51744;50.872;4.730;2023-04-06T08:21:53;20.33;;;18.30;;
16809;SDS011;51744;50.872;4.730;2023-04-06T08:24:41;19.23;;;17.17;;
16809;SDS011;51744;50.872;4.730;2023-04-06T08:27:31;19.38;;;17.35;;
16809;SDS011;51744;50.872;4.730;2023-04-06T08:30:18;19.48;;;17.48;;
16809;SDS011;51744;50.872;4.730;2023-04-06T08:33:06;21.10;;;18.83;;
16809;SDS011;51744;50.872;4.730;2023-04-06T08:35:53;20.27;;;17.65;;
16809;SDS011;51744;50.872;4.730;2023-04-06T08:38:41;19.10;;;17.05;;
16809;SDS011;51744;50.872;4.730;2023-04-06T08:41:29;19.08;;;17.20;;
16809;SDS011;51744;50.872;4.730;2023-04-06T08:44:19;18.00;;;16.10;;
16809;SDS011;51744;50.872;4.730;2023-04-06T08:47:06;17.05;;;15.32;;
16809;SDS011;51744;50.872;4.730;2023-04-06T08:49:54;18.25;;;15.70;;
16809;SDS011;51744;50.872;4.730;2023-04-06T08:52:44;18.77;;;16.87;;
16809;SDS011;51744;50.872;4.730;2023-04-06T08:55:33;17.33;;;15.52;;
16809;SDS011;51744;50.872;4.730;2023-04-06T08:58:22;17.60;;;15.82;;
16809;SDS011;51744;50.872;4.730;2023-04-06T09:01:25;20.38;;;17.48;;
16809;SDS011;51744;50.872;4.730;2023-04-06T09:04:14;18.40;;;16.60;;
16809;SDS011;51744;50.872;4.730;2023-04-06T09:07:03;19.98;;;17.33;;
16809;SDS011;51744;50.872;4.730;2023-04-06T09:09:50;18.88;;;16.13;;
16809;SDS011;51744;50.872;4.730;2023-04-06T09:12:37;17.83;;;16.02;;
16809;SDS011;51744;50.872;4.730;2023-04-06T09:15:25;17.95;;;16.10;;
16809;SDS011;51744;50.872;4.730;2023-04-06T09:18:15;19.27;;;17.27;;
16809;SDS011;51744;50.872;4.730;2023-04-06T09:21:16;19.27;;;17.35;;
16809;SDS011;51744;50.872;4.730;2023-04-06T09:24:10;18.92;;;17.02;;
16809;SDS011;51744;50.872;4.730;2023-04-06T09:26:57;19.73;;;17.83;;
16809;SDS011;51744;50.872;4.730;2023-04-06T09:29:44;20.70;;;18.65;;
16809;SDS011;51744;50.872;4.730;2023-04-06T09:32:31;19.77;;;17.75;;
16809;SDS011;51744;50.872;4.730;2023-04-06T09:35:31;21.23;;;19.10;;
16809;SDS011;51744;50.872;4.730;2023-04-06T09:38:19;19.38;;;17.48;;
16809;SDS011;51744;50.872;4.730;2023-04-06T09:41:07;20.10;;;18.08;;
16809;SDS011;51744;50.872;4.730;2023-04-06T09:44:02;21.40;;;19.20;;
16809;SDS011;51744;50.872;4.730;2023-04-06T09:46:51;20.58;;;18.58;;
16809;SDS011;51744;50.872;4.730;2023-04-06T09:49:46;20.17;;;18.20;;
16809;SDS011;51744;50.872;4.730;2023-04-06T09:52:40;20.70;;;18.60;;
16809;SDS011;51744;50.872;4.730;2023-04-06T09:55:30;22.40;;;20.10;;
16809;SDS011;51744;50.872;4.730;2023-04-06T09:58:21;20.75;;;18.58;;
16809;SDS011;51744;50.872;4.730;2023-04-06T10:01:14;22.13;;;19.85;;
16809;SDS011;51744;50.872;4.730;2023-04-06T10:04:08;22.73;;;20.58;;
16809;SDS011;51744;50.872;4.730;2023-04-06T10:07:05;20.92;;;18.83;;
16809;SDS011;51744;50.872;4.730;2023-04-06T10:09:58;20.95;;;18.85;;
16809;SDS011;51744;50.872;4.730;2023-04-06T10:12:47;17.52;;;15.70;;
16809;SDS011;51744;50.872;4.730;2023-04-06T10:15:35;17.67;;;15.98;;
16809;SDS011;51744;50.872;4.730;2023-04-06T10:18:25;18.80;;;17.00;;
16809;SDS011;51744;50.872;4.730;2023-04-06T10:21:14;19.17;;;17.30;;
16809;SDS011;51744;50.872;4.730;2023-04-06T10:24:08;17.48;;;15.65;;
16809;SDS011;51744;50.872;4.730;2023-04-06T10:27:00;18.05;;;16.33;;
16809;SDS011;51744;50.872;4.730;2023-04-06T10:29:48;18.02;;;16.23;;
16809;SDS011;51744;50.872;4.730;2023-04-06T10:32:38;19.30;;;17.25;;
16809;SDS011;51744;50.872;4.730;2023-04-06T10:35:36;18.42;;;16.52;;
16809;SDS011;51744;50.872;4.730;2023-04-06T10:38:33;19.02;;;17.08;;
16809;SDS011;51744;50.872;4.730;2023-04-06T10:41:31;17.55;;;15.68;;
16809;SDS011;51744;50.872;4.730;2023-04-06T10:44:22;18.42;;;16.73;;
16809;SDS011;51744;50.872;4.730;2023-04-06T10:47:15;19.20;;;17.35;;
16809;SDS011;51744;50.872;4.730;2023-04-06T10:50:04;18.92;;;17.20;;
16809;SDS011;51744;50.872;4.730;2023-04-06T10:52:59;17.52;;;15.55;;
16809;SDS011;51744;50.872;4.730;2023-04-06T10:55:47;18.88;;;16.98;;
16809;SDS011;51744;50.872;4.730;2023-04-06T10:58:43;18.67;;;16.87;;
16809;SDS011;51744;50.872;4.730;2023-04-06T11:01:33;18.75;;;16.88;;
16809;SDS011;51744;50.872;4.730;2023-04-06T11:04:21;18.00;;;16.23;;
16809;SDS011;51744;50.872;4.730;2023-04-06T11:07:09;19.13;;;17.17;;
16809;SDS011;51744;50.872;4.730;2023-04-06T11:09:56;19.85;;;17.92;;
16809;SDS011;51744;50.872;4.730;2023-04-06T11:13:01;18.83;;;16.92;;
16809;SDS011;51744;50.872;4.730;2023-04-06T11:15:51;19.15;;;17.25;;
16809;SDS011;51744;50.872;4.730;2023-04-06T11:18:47;19.88;;;17.88;;
16809;SDS011;51744;50.872;4.730;2023-04-06T11:21:39;19.83;;;17.83;;
16809;SDS011;51744;50.872;4.730;2023-04-06T11:24:28;18.80;;;17.05;;
16809;SDS011;51744;50.872;4.730;2023-04-06T11:27:17;19.35;;;17.42;;
16809;SDS011;51744;50.872;4.730;2023-04-06T11:30:07;18.97;;;17.07;;
16809;SDS011;51744;50.872;4.730;2023-04-06T11:33:00;18.05;;;16.23;;
16809;SDS011;51744;50.872;4.730;2023-04-06T11:35:49;18.53;;;16.73;;
16809;SDS011;51744;50.872;4.730;2023-04-06T11:38:38;18.38;;;16.55;;
16809;SDS011;51744;50.872;4.730;2023-04-06T11:41:26;18.13;;;16.23;;
16809;SDS011;51744;50.872;4.730;2023-04-06T11:44:26;18.33;;;16.52;;
16809;SDS011;51744;50.872;4.730;2023-04-06T11:47:15;18.02;;;16.27;;
16809;SDS011;51744;50.872;4.730;2023-04-06T11:50:06;17.52;;;15.75;;
16809;SDS011;51744;50.872;4.730;2023-04-06T11:53:00;16.45;;;14.93;;
16809;SDS011;51744;50.872;4.730;2023-04-06T11:55:49;17.70;;;16.00;;
16809;SDS011;51744;50.872;4.730;2023-04-06T11:58:36;17.27;;;15.68;;
16809;SDS011;51744;50.872;4.730;2023-04-06T12:01:25;16.48;;;15.00;;
16809;SDS011;51744;50.872;4.730;2023-04-06T12:04:13;17.08;;;15.43;;
16809;SDS011;51744;50.872;4.730;2023-04-06T12:07:00;16.45;;;14.85;;
16809;SDS011;51744;50.872;4.730;2023-04-06T12:09:49;17.40;;;15.70;;
16809;SDS011;51744;50.872;4.730;2023-04-06T12:12:37;16.15;;;14.65;;
16809;SDS011;51744;50.872;4.730;2023-04-06T12:15:25;17.30;;;15.55;;
16809;SDS011;51744;50.872;4.730;2023-04-06T12:18:12;17.02;;;15.52;;
16809;SDS011;51744;50.872;4.730;2023-04-06T12:21:00;16.73;;;15.10;;
16809;SDS011;51744;50.872;4.730;2023-04-06T12:23:48;16.90;;;15.20;;
16809;SDS011;51744;50.872;4.730;2023-04-06T12:26:36;16.73;;;15.13;;
16809;SDS011;51744;50.872;4.730;2023-04-06T12:29:23;16.40;;;14.80;;
16809;SDS011;51744;50.872;4.730;2023-04-06T12:32:11;16.77;;;15.18;;
16809;SDS011;51744;50.872;4.730;2023-04-06T12:34:59;16.57;;;14.97;;
16809;SDS011;51744;50.872;4.730;2023-04-06T12:37:47;16.90;;;15.30;;
16809;SDS011;51744;50.872;4.730;2023-04-06T12:40:36;16.73;;;15.13;;
16809;SDS011;51744;50.872;4.730;2023-04-06T12:43:27;16.07;;;14.67;;
16809;SDS011;51744;50.872;4.730;2023-04-06T12:46:15;16.27;;;14.70;;
16809;SDS011;51744;50.872;4.730;2023-04-06T12:49:02;16.02;;;14.43;;
16809;SDS011;51744;50.872;4.730;2023-04-06T12:51:50;15.80;;;14.30;;
16809;SDS011;51744;50.872;4.730;2023-04-06T12:54:37;15.57;;;14.10;;
16809;SDS011;51744;50.872;4.730;2023-04-06T12:57:24;16.90;;;15.30;;
16809;SDS011;51744;50.872;4.730;2023-04-06T13:00:14;16.38;;;14.88;;
16809;SDS011;51744;50.872;4.730;2023-04-06T13:03:03;15.82;;;14.43;;
16809;SDS011;51744;50.872;4.730;2023-04-06T13:05:51;17.13;;;15.50;;
16809;SDS011;51744;50.872;4.730;2023-04-06T13:08:38;17.35;;;15.65;;
16809;SDS011;51744;50.872;4.730;2023-04-06T13:11:26;16.80;;;15.20;;
16809;SDS011;51744;50.872;4.730;2023-04-06T13:14:14;17.63;;;16.02;;
16809;SDS011;51744;50.872;4.730;2023-04-06T13:17:03;18.60;;;16.83;;
16809;SDS011;51744;50.872;4.730;2023-04-06T13:19:50;19.08;;;17.27;;
16809;SDS011;51744;50.872;4.730;2023-04-06T13:22:38;19.03;;;17.23;;
16809;SDS011;51744;50.872;4.730;2023-04-06T13:25:25;19.75;;;17.85;;
16809;SDS011;51744;50.872;4.730;2023-04-06T13:28:13;20.13;;;18.23;;
16809;SDS011;51744;50.872;4.730;2023-04-06T13:31:01;20.45;;;18.35;;
16809;SDS011;51744;50.872;4.730;2023-04-06T13:33:51;21.90;;;19.73;;
16809;SDS011;51744;50.872;4.730;2023-04-06T13:36:38;21.63;;;19.60;;
16809;SDS011;51744;50.872;4.730;2023-04-06T13:39:27;21.30;;;19.23;;
16809;SDS011;51744;50.872;4.730;2023-04-06T13:42:15;22.33;;;20.10;;
16809;SDS011;51744;50.872;4.730;2023-04-06T13:45:03;21.30;;;19.23;;
16809;SDS011;51744;50.872;4.730;2023-04-06T13:47:51;22.30;;;20.10;;
16809;SDS011;51744;50.872;4.730;2023-04-06T13:50:41;22.10;;;19.80;;
16809;SDS011;51744;50.872;4.730;2023-04-06T13:53:28;22.52;;;20.33;;
16809;SDS011;51744;50.872;4.730;2023-04-06T13:56:16;22.90;;;20.60;;
16809;SDS011;51744;50.872;4.730;2023-04-06T13:59:03;23.23;;;20.95;;
16809;SDS011;51744;50.872;4.730;2023-04-06T14:01:51;23.98;;;21.55;;
16809;SDS011;51744;50.872;4.730;2023-04-06T14:04:39;21.65;;;19.63;;
16809;SDS011;51744;50.872;4.730;2023-04-06T14:07:29;20.80;;;18.80;;
16809;SDS011;51744;50.872;4.730;2023-04-06T14:10:16;21.65;;;19.58;;
16809;SDS011;51744;50.872;4.730;2023-04-06T14:13:07;22.35;;;20.15;;
16809;SDS011;51744;50.872;4.730;2023-04-06T14:15:55;22.23;;;20.02;;
16809;SDS011;51744;50.872;4.730;2023-04-06T14:18:42;21.25;;;19.15;;
16809;SDS011;51744;50.872;4.730;2023-04-06T14:21:29;21.25;;;19.25;;
16809;SDS011;51744;50.872;4.730;2023-04-06T14:24:18;21.42;;;19.25;;
16809;SDS011;51744;50.872;4.730;2023-04-06T14:27:06;21.85;;;19.58;;
16809;SDS011;51744;50.872;4.730;2023-04-06T14:29:53;20.33;;;18.48;;
16809;SDS011;51744;50.872;4.730;2023-04-06T14:32:42;21.85;;;19.67;;
16809;SDS011;51744;50.872;4.730;2023-04-06T14:35:29;20.63;;;18.63;;
16809;SDS011;51744;50.872;4.730;2023-04-06T14:38:18;21.60;;;19.60;;
16809;SDS011;51744;50.872;4.730;2023-04-06T14:41:06;23.02;;;20.83;;
16809;SDS011;51744;50.872;4.730;2023-04-06T14:43:56;23.63;;;21.40;;
16809;SDS011;51744;50.872;4.730;2023-04-06T14:46:43;23.70;;;21.40;;
16809;SDS011;51744;50.872;4.730;2023-04-06T14:49:31;23.23;;;21.02;;
16809;SDS011;51744;50.872;4.730;2023-04-06T14:52:19;24.55;;;22.15;;
16809;SDS011;51744;50.872;4.730;2023-04-06T14:55:07;24.58;;;22.25;;
16809;SDS011;51744;50.872;4.730;2023-04-06T14:57:56;24.77;;;22.37;;
16809;SDS011;51744;50.872;4.730;2023-04-06T15:00:43;26.92;;;23.85;;
16809;SDS011;51744;50.872;4.730;2023-04-06T15:03:31;27.10;;;24.25;;
16809;SDS011;51744;50.872;4.730;2023-04-06T15:06:19;25.67;;;23.02;;
16809;SDS011;51744;50.872;4.730;2023-04-06T15:09:07;26.63;;;23.92;;
16809;SDS011;51744;50.872;4.730;2023-04-06T15:11:54;27.00;;;24.33;;
16809;SDS011;51744;50.872;4.730;2023-04-06T15:14:43;29.30;;;26.20;;
16809;SDS011;51744;50.872;4.730;2023-04-06T15:17:31;27.45;;;24.65;;
16809;SDS011;51744;50.872;4.730;2023-04-06T15:20:18;25.20;;;22.55;;
16809;SDS011;51744;50.872;4.730;2023-04-06T15:23:06;26.60;;;23.93;;
16809;SDS011;51744;50.872;4.730;2023-04-06T15:25:53;27.77;;;24.87;;
16809;SDS011;51744;50.872;4.730;2023-04-06T15:28:41;27.27;;;24.60;;
16809;SDS011;51744;50.872;4.730;2023-04-06T15:31:30;27.90;;;25.20;;
16809;SDS011;51744;50.872;4.730;2023-04-06T15:34:26;26.63;;;24.02;;
16809;SDS011;51744;50.872;4.730;2023-04-06T15:37:16;26.65;;;24.15;;
16809;SDS011;51744;50.872;4.730;2023-04-06T15:40:03;28.55;;;25.65;;
16809;SDS011;51744;50.872;4.730;2023-04-06T15:42:52;29.38;;;26.33;;
16809;SDS011;51744;50.872;4.730;2023-04-06T15:45:40;26.92;;;24.20;;
16809;SDS011;51744;50.872;4.730;2023-04-06T15:48:29;29.13;;;26.25;;
16809;SDS011;51744;50.872;4.730;2023-04-06T15:51:17;25.80;;;23.30;;
16809;SDS011;51744;50.872;4.730;2023-04-06T15:54:05;25.37;;;22.87;;
16809;SDS011;51744;50.872;4.730;2023-04-06T15:56:53;25.50;;;23.10;;
16809;SDS011;51744;50.872;4.730;2023-04-06T15:59:41;27.05;;;24.27;;
16809;SDS011;51744;50.872;4.730;2023-04-06T16:02:28;28.73;;;25.83;;
16809;SDS011;51744;50.872;4.730;2023-04-06T16:05:18;26.30;;;23.75;;
16809;SDS011;51744;50.872;4.730;2023-04-06T16:08:05;27.05;;;24.15;;
16809;SDS011;51744;50.872;4.730;2023-04-06T16:10:53;27.90;;;25.03;;
16809;SDS011;51744;50.872;4.730;2023-04-06T16:13:40;26.65;;;24.05;;
16809;SDS011;51744;50.872;4.730;2023-04-06T16:16:37;26.45;;;23.75;;
16809;SDS011;51744;50.872;4.730;2023-04-06T16:19:25;25.75;;;23.15;;
16809;SDS011;51744;50.872;4.730;2023-04-06T16:22:14;25.67;;;23.08;;
16809;SDS011;51744;50.872;4.730;2023-04-06T16:25:01;25.08;;;22.58;;
16809;SDS011;51744;50.872;4.730;2023-04-06T16:27:49;24.75;;;22.35;;
16809;SDS011;51744;50.872;4.730;2023-04-06T16:30:36;28.65;;;25.33;;